Time;durP1;ratioP1;P1;durP2;ratioP2;P2;SDS_P1;SDS_P2;PMS_P1;PMS_P2;Temp;Humidity;BMP_temperature;BMP_pressure;BME280_temperature;BME280_humidity;BME280_pressure;Samples;Min_cycle;Max_cycle;Signal;HPM_P1;HPM_P2
2022/01/06 00:01:18;;;;;;;4.40;1.42;;;7.30;70.70;;;;;;2495598;53;21476;-73
2022/01/06 00:03:45;;;;;;;5.78;1.50;;;7.30;70.80;;;;;;2350584;53;21218;-73
2022/01/06 00:06:11;;;;;;;3.62;1.45;;;7.30;70.80;;;;;;2349033;53;21785;-73
2022/01/06 00:08:39;;;;;;;6.28;1.77;;;7.20;70.70;;;;;;2350975;53;21025;-73
2022/01/06 00:11:06;;;;;;;4.45;1.60;;;7.20;70.70;;;;;;2346483;53;21081;-73
2022/01/06 00:13:49;;;;;;;5.62;1.60;;;7.20;70.70;;;;;;2333998;53;21018;-73
2022/01/06 00:16:34;;;;;;;5.15;1.52;;;7.10;70.60;;;;;;2449626;52;21027;-73
2022/01/06 00:24:53;;;;;;;5.72;1.62;;;7.10;70.70;;;;;;2347038;53;20899;-73
2022/01/06 00:27:19;;;;;;;5.60;1.50;;;7.00;70.60;;;;;;2339843;53;21649;-73
2022/01/06 00:29:46;;;;;;;5.65;1.62;;;7.00;70.60;;;;;;2520405;52;21044;-73
2022/01/06 00:32:12;;;;;;;4.43;1.90;;;6.90;70.60;;;;;;2342937;53;20923;-73
2022/01/06 00:34:42;;;;;;;6.05;1.90;;;6.90;70.70;;;;;;2405667;52;21733;-73
2022/01/06 00:37:10;;;;;;;6.30;1.80;;;6.90;70.80;;;;;;2347264;53;21020;-73
2022/01/06 00:39:36;;;;;;;5.35;1.70;;;6.90;70.80;;;;;;2348677;53;20971;-73
2022/01/06 00:42:03;;;;;;;4.45;1.50;;;6.90;70.80;;;;;;2579782;52;20959;-73
2022/01/06 00:44:30;;;;;;;6.85;1.98;;;6.80;70.80;;;;;;2581763;52;20971;-73
2022/01/06 00:46:57;;;;;;;4.78;1.60;;;6.80;70.90;;;;;;2486739;52;20950;-73
2022/01/06 00:49:23;;;;;;;4.10;1.33;;;6.80;71.00;;;;;;2331838;53;20963;-73
2022/01/06 00:51:49;;;;;;;7.47;1.77;;;6.80;71.20;;;;;;2346093;53;20950;-73
2022/01/06 00:54:16;;;;;;;6.18;2.00;;;6.70;71.20;;;;;;2350605;53;20975;-73
2022/01/06 00:56:42;;;;;;;4.90;1.40;;;6.70;71.20;;;;;;2344144;53;21331;-73
2022/01/06 00:59:09;;;;;;;5.62;2.10;;;6.70;71.20;;;;;;2349893;53;21419;-73
2022/01/06 01:01:35;;;;;;;8.10;3.45;;;6.70;71.20;;;;;;2427703;52;21930;-73
2022/01/06 01:04:01;;;;;;;12.45;5.32;;;6.70;71.30;;;;;;2486861;52;20995;-73
2022/01/06 01:06:29;;;;;;;15.82;5.47;;;6.70;71.20;;;;;;2350295;53;21085;-73
2022/01/06 01:08:55;;;;;;;12.02;5.53;;;6.60;71.20;;;;;;2344566;53;21299;-73
2022/01/06 01:11:21;;;;;;;8.32;3.65;;;6.60;71.30;;;;;;2340099;53;20983;-73
2022/01/06 01:13:56;;;;;;;7.65;3.12;;;6.60;71.40;;;;;;2347793;53;20941;-73
2022/01/06 01:16:30;;;;;;;6.30;2.42;;;6.60;71.40;;;;;;2349069;53;20959;-72
2022/01/06 01:18:57;;;;;;;6.00;2.65;;;6.60;71.50;;;;;;2350631;53;20968;-72
2022/01/06 01:21:26;;;;;;;7.37;2.70;;;6.60;71.50;;;;;;2438717;53;21030;-72
2022/01/06 01:23:59;;;;;;;7.05;2.30;;;6.60;71.60;;;;;;2344636;53;20958;-72
2022/01/06 01:26:27;;;;;;;4.72;1.85;;;6.50;71.40;;;;;;2346950;53;21107;-72
2022/01/06 01:28:53;;;;;;;6.75;2.28;;;6.50;71.60;;;;;;2342928;53;20926;-73
2022/01/06 01:31:27;;;;;;;4.22;1.70;;;6.50;71.70;;;;;;2349200;53;20994;-72
2022/01/06 01:33:57;;;;;;;3.53;1.30;;;6.50;71.80;;;;;;2568573;53;20868;-73
2022/01/06 01:36:24;;;;;;;4.35;1.45;;;6.50;72.00;;;;;;2340875;53;21004;-74
2022/01/06 01:38:52;;;;;;;4.82;1.85;;;6.60;72.10;;;;;;2588054;52;20946;-73
2022/01/06 01:41:18;;;;;;;5.05;2.00;;;6.60;72.10;;;;;;2348836;53;20935;-72
2022/01/06 01:43:47;;;;;;;4.93;1.90;;;6.50;72.00;;;;;;2346754;53;21568;-73
2022/01/06 01:46:16;;;;;;;10.07;4.90;;;6.60;72.10;;;;;;2340263;53;20919;-73
2022/01/06 01:48:48;;;;;;;11.75;5.53;;;6.50;71.90;;;;;;2580835;52;21031;-73
2022/01/06 01:51:15;;;;;;;10.60;4.00;;;6.60;72.10;;;;;;2354388;53;21012;-73
2022/01/06 01:53:41;;;;;;;6.53;2.95;;;6.60;72.00;;;;;;2346188;53;20951;-72
2022/01/06 01:56:08;;;;;;;6.65;3.17;;;6.60;72.10;;;;;;2587328;52;21805;-73
2022/01/06 01:58:34;;;;;;;7.05;2.78;;;6.60;72.10;;;;;;2355028;53;20989;-73
2022/01/06 02:01:01;;;;;;;6.37;2.30;;;6.60;72.10;;;;;;2341437;53;20950;-73
2022/01/06 02:03:27;;;;;;;4.87;1.90;;;6.60;72.10;;;;;;2343224;53;20939;-73
2022/01/06 02:05:55;;;;;;;5.87;2.03;;;6.60;72.80;;;;;;2352689;53;21571;-72
2022/01/06 02:08:21;;;;;;;6.47;1.90;;;6.60;72.10;;;;;;2356063;53;20991;-73
2022/01/06 02:10:49;;;;;;;7.95;1.98;;;6.60;72.10;;;;;;2354658;53;20949;-72
2022/01/06 02:13:16;;;;;;;7.62;2.30;;;6.60;72.00;;;;;;2341790;53;21292;-73
2022/01/06 02:15:42;;;;;;;5.80;1.95;;;6.60;71.90;;;;;;2344854;53;20958;-73
2022/01/06 02:18:09;;;;;;;5.07;1.85;;;6.50;71.80;;;;;;2354861;53;21757;-73
2022/01/06 02:20:37;;;;;;;4.53;1.77;;;6.50;71.70;;;;;;2444557;53;21914;-73
2022/01/06 02:23:04;;;;;;;5.60;2.05;;;6.50;71.80;;;;;;2568061;52;21015;-73
2022/01/06 02:25:32;;;;;;;6.53;1.87;;;6.50;71.90;;;;;;2346877;53;20994;-72
2022/01/06 02:28:08;;;;;;;9.30;2.20;;;6.50;71.90;;;;;;2365486;54;20918;-73
2022/01/06 02:30:36;;;;;;;7.03;2.00;;;6.50;72.00;;;;;;2343727;53;21019;-73
2022/01/06 02:33:03;;;;;;;5.78;1.83;;;6.40;71.80;;;;;;2340754;53;20991;-72
2022/01/06 02:35:29;;;;;;;5.80;1.67;;;6.40;71.80;;;;;;2341064;53;21412;-72
2022/01/06 02:37:56;;;;;;;4.35;1.55;;;6.40;71.90;;;;;;2497714;52;1283148;-72
2022/01/06 02:40:24;;;;;;;6.45;1.95;;;6.40;71.90;;;;;;2348353;53;20999;-73
2022/01/06 02:42:52;;;;;;;6.50;1.90;;;6.40;71.70;;;;;;2356895;53;21055;-73
2022/01/06 02:45:19;;;;;;;6.87;1.80;;;6.40;71.60;;;;;;2480964;53;20983;-73
2022/01/06 02:47:46;;;;;;;5.03;1.90;;;6.40;71.50;;;;;;2347553;53;21006;-73
2022/01/06 02:50:12;;;;;;;4.70;1.73;;;6.30;71.40;;;;;;2344452;53;20979;-73
2022/01/06 02:52:42;;;;;;;6.78;1.90;;;6.30;71.40;;;;;;2340580;53;20939;-73
2022/01/06 02:55:09;;;;;;;7.62;1.85;;;6.30;71.50;;;;;;2339608;53;21341;-73
2022/01/06 02:57:36;;;;;;;6.50;1.85;;;6.20;71.40;;;;;;2342035;53;21024;-73
2022/01/06 03:00:07;;;;;;;5.10;1.80;;;6.20;71.40;;;;;;2615655;52;20991;-73
2022/01/06 03:02:33;;;;;;;5.97;2.10;;;6.20;71.30;;;;;;2350888;53;21056;-73
2022/01/06 03:05:00;;;;;;;4.57;1.67;;;6.10;71.20;;;;;;2345869;53;21003;-74
2022/01/06 03:07:26;;;;;;;3.85;1.50;;;6.10;71.30;;;;;;2341269;53;21681;-74
2022/01/06 03:09:55;;;;;;;5.32;1.90;;;6.10;71.40;;;;;;2348343;53;20965;-74
2022/01/06 03:12:39;;;;;;;6.18;1.60;;;6.10;71.50;;;;;;2350831;53;21419;-73
2022/01/06 03:15:17;;;;;;;5.15;1.75;;;6.00;71.50;;;;;;2344616;53;21020;-73
2022/01/06 03:17:45;;;;;;;4.95;1.60;;;6.10;71.70;;;;;;2549317;52;21906;-73
2022/01/06 03:20:13;;;;;;;3.80;1.58;;;6.00;71.70;;;;;;2583303;52;20936;-73
2022/01/06 03:22:39;;;;;;;5.78;1.50;;;6.00;71.80;;;;;;2396066;53;20970;-74
2022/01/06 03:25:06;;;;;;;4.70;1.73;;;6.00;71.90;;;;;;2352516;53;20959;-73
2022/01/06 03:27:34;;;;;;;4.47;1.75;;;6.00;71.90;;;;;;2358123;54;20974;-74
2022/01/06 03:30:02;;;;;;;3.85;1.58;;;6.00;71.90;;;;;;2344381;53;21924;-73
2022/01/06 03:32:29;;;;;;;4.62;1.90;;;6.00;71.90;;;;;;2347518;53;20967;-73
2022/01/06 03:34:57;;;;;;;5.00;1.90;;;5.90;71.80;;;;;;2352421;53;21024;-73
2022/01/06 03:37:23;;;;;;;4.97;1.90;;;6.00;72.00;;;;;;2387139;53;21520;-73
2022/01/06 03:39:50;;;;;;;3.15;1.40;;;5.90;72.00;;;;;;2346273;53;20995;-73
2022/01/06 03:42:17;;;;;;;4.62;1.65;;;5.90;72.20;;;;;;2586018;52;21007;-73
2022/01/06 03:44:43;;;;;;;5.25;1.75;;;5.90;72.20;;;;;;2487999;52;21402;-73
2022/01/06 03:47:10;;;;;;;3.92;1.62;;;5.90;72.30;;;;;;2592377;52;20943;-73
2022/01/06 03:49:39;;;;;;;3.85;1.60;;;5.90;72.30;;;;;;2585857;52;20976;-73
2022/01/06 03:52:05;;;;;;;4.12;1.58;;;5.90;72.30;;;;;;2331692;53;20980;-74
2022/01/06 03:54:31;;;;;;;6.43;1.50;;;5.90;72.50;;;;;;2582184;52;21075;-73
2022/01/06 03:56:59;;;;;;;5.50;1.77;;;5.90;72.60;;;;;;2341944;53;20959;-73
2022/01/06 03:59:25;;;;;;;7.82;1.90;;;5.90;72.60;;;;;;2580637;52;21489;-73
2022/01/06 04:01:54;;;;;;;5.72;1.92;;;5.90;72.50;;;;;;2437292;52;20983;-73
2022/01/06 04:04:21;;;;;;;5.57;1.90;;;5.90;72.40;;;;;;2382802;52;21078;-73
2022/01/06 04:06:47;;;;;;;3.62;1.70;;;5.90;72.50;;;;;;2516563;52;21044;-73
2022/01/06 04:09:15;;;;;;;4.15;1.83;;;5.90;72.60;;;;;;2581160;52;20966;-73
2022/01/06 04:11:41;;;;;;;5.80;1.92;;;5.90;72.60;;;;;;2340311;53;21014;-73
2022/01/06 04:14:08;;;;;;;4.65;2.08;;;5.90;72.60;;;;;;2350026;53;20982;-73
2022/01/06 04:16:38;;;;;;;8.10;1.87;;;6.00;72.80;;;;;;2453482;53;21907;-73
2022/01/06 04:19:05;;;;;;;6.90;1.98;;;6.00;72.80;;;;;;2359153;53;20961;-73
2022/01/06 04:21:31;;;;;;;5.85;1.92;;;6.00;73.00;;;;;;2404010;53;20940;-73
2022/01/06 04:23:57;;;;;;;3.47;1.58;;;6.00;73.00;;;;;;2342727;53;21046;-73
2022/01/06 04:26:24;;;;;;;5.60;1.85;;;6.00;73.00;;;;;;2382553;52;21046;-72
2022/01/06 04:28:50;;;;;;;3.78;1.50;;;6.10;73.20;;;;;;2434664;53;21540;-73
2022/01/06 04:31:18;;;;;;;4.00;1.87;;;6.00;73.10;;;;;;2364411;52;21034;-73
2022/01/06 04:33:46;;;;;;;5.47;1.62;;;6.10;73.10;;;;;;2345331;53;21206;-73
2022/01/06 04:36:12;;;;;;;5.15;1.55;;;6.00;72.80;;;;;;2594758;52;20932;-73
2022/01/06 04:38:42;;;;;;;4.43;1.60;;;6.10;72.80;;;;;;2342932;53;20990;-73
2022/01/06 04:41:08;;;;;;;4.90;2.30;;;6.10;72.90;;;;;;2349791;53;21345;-73
2022/01/06 04:43:35;;;;;;;5.55;2.17;;;6.10;72.80;;;;;;2343899;53;20946;-73
2022/01/06 04:46:01;;;;;;;3.85;1.75;;;6.10;72.70;;;;;;2332095;53;21332;-73
2022/01/06 04:48:29;;;;;;;4.10;1.80;;;6.10;72.70;;;;;;2337219;53;21004;-73
2022/01/06 04:50:55;;;;;;;5.53;1.92;;;6.10;72.70;;;;;;2322302;54;20996;-73
2022/01/06 04:53:22;;;;;;;5.07;1.80;;;6.10;72.70;;;;;;2331300;53;21042;-74
2022/01/06 04:55:51;;;;;;;3.92;1.77;;;6.10;72.70;;;;;;2414052;53;21006;-73
2022/01/06 04:58:17;;;;;;;3.70;1.70;;;6.10;72.80;;;;;;2339504;53;20915;-73
2022/01/06 05:00:43;;;;;;;3.45;1.70;;;6.00;72.80;;;;;;2344985;53;21490;-73
2022/01/06 05:03:10;;;;;;;3.62;1.58;;;6.10;72.90;;;;;;2577383;53;21002;-74
2022/01/06 05:05:36;;;;;;;5.43;1.52;;;6.00;72.80;;;;;;2528479;53;20931;-74
2022/01/06 05:08:03;;;;;;;5.12;2.10;;;6.10;73.00;;;;;;2344903;53;21167;-74
2022/01/06 05:10:30;;;;;;;5.32;1.70;;;6.10;72.90;;;;;;2343440;53;21458;-74
2022/01/06 05:12:57;;;;;;;5.25;1.58;;;6.10;72.90;;;;;;2580913;53;20941;-74
2022/01/06 05:15:23;;;;;;;4.05;1.58;;;6.10;72.90;;;;;;2371121;53;21507;-75
2022/01/06 05:17:49;;;;;;;4.70;1.73;;;6.10;72.80;;;;;;2404239;52;20976;-74
2022/01/06 05:20:15;;;;;;;4.75;1.50;;;6.10;72.60;;;;;;2340743;54;21037;-74
2022/01/06 05:22:45;;;;;;;3.05;1.23;;;6.10;72.50;;;;;;2450415;52;20948;-75
2022/01/06 05:25:13;;;;;;;3.17;1.17;;;6.00;72.00;;;;;;2321425;53;20945;-75
2022/01/06 05:27:40;;;;;;;3.75;1.30;;;6.00;71.60;;;;;;2448951;53;21062;-74
2022/01/06 05:30:07;;;;;;;3.92;1.25;;;6.00;71.40;;;;;;2527379;52;20959;-74
2022/01/06 05:32:33;;;;;;;4.05;1.45;;;5.90;71.30;;;;;;2441967;53;20924;-74
2022/01/06 05:35:02;;;;;;;4.97;1.70;;;5.90;71.50;;;;;;2338758;53;20952;-74
2022/01/06 05:37:29;;;;;;;3.22;1.37;;;5.80;71.50;;;;;;2352057;53;21056;-74
2022/01/06 05:39:55;;;;;;;6.00;1.55;;;5.80;71.70;;;;;;2387119;53;20970;-74
2022/01/06 05:42:21;;;;;;;4.87;1.73;;;5.80;71.90;;;;;;2357883;52;20954;-74
2022/01/06 05:44:48;;;;;;;7.15;2.10;;;5.80;72.00;;;;;;2351533;53;20973;-74
2022/01/06 05:47:14;;;;;;;3.08;1.40;;;5.70;72.10;;;;;;2338837;53;20958;-74
2022/01/06 05:49:40;;;;;;;4.90;2.00;;;5.70;72.20;;;;;;2376051;52;20900;-73
2022/01/06 05:52:06;;;;;;;4.03;1.70;;;5.70;72.20;;;;;;2361750;53;20940;-74
2022/01/06 05:54:33;;;;;;;4.47;1.42;;;5.70;72.20;;;;;;2343626;53;20979;-74
2022/01/06 05:57:00;;;;;;;3.62;1.60;;;5.70;72.30;;;;;;2418711;52;21024;-74
2022/01/06 05:59:28;;;;;;;5.00;1.75;;;5.70;72.30;;;;;;2353717;53;21066;-73
2022/01/06 06:01:55;;;;;;;4.65;1.70;;;5.60;72.40;;;;;;2351194;53;20986;-73
2022/01/06 06:04:21;;;;;;;4.80;1.50;;;5.60;72.50;;;;;;2351972;53;21782;-74
2022/01/06 06:06:47;;;;;;;3.97;1.65;;;5.60;72.60;;;;;;2354225;53;20930;-73
2022/01/06 06:09:16;;;;;;;4.12;1.30;;;5.60;72.70;;;;;;2349494;53;21786;-73
2022/01/06 06:11:42;;;;;;;5.28;1.70;;;5.60;72.80;;;;;;2564725;52;20936;-74
2022/01/06 06:14:08;;;;;;;4.50;1.50;;;5.60;72.80;;;;;;2438035;52;20927;-73
2022/01/06 06:16:35;;;;;;;5.03;1.70;;;5.60;72.80;;;;;;2324861;53;20985;-73
2022/01/06 06:19:01;;;;;;;5.40;1.62;;;5.60;72.90;;;;;;2337421;53;21064;-73
2022/01/06 06:21:27;;;;;;;5.90;2.00;;;5.70;73.10;;;;;;2337091;53;20950;-73
2022/01/06 06:23:54;;;;;;;4.62;1.77;;;5.70;73.10;;;;;;2420656;52;20941;-73
2022/01/06 06:26:22;;;;;;;4.65;1.62;;;5.70;73.20;;;;;;2338211;53;20955;-74
2022/01/06 06:28:48;;;;;;;4.28;1.70;;;5.70;73.30;;;;;;2443489;52;20995;-74
2022/01/06 06:31:15;;;;;;;3.65;1.90;;;5.70;73.30;;;;;;2328691;54;20976;-73
2022/01/06 06:33:41;;;;;;;5.30;1.90;;;5.70;73.40;;;;;;2494099;52;21295;-74
2022/01/06 06:36:07;;;;;;;5.03;1.90;;;5.70;73.50;;;;;;2326358;53;21031;-74
2022/01/06 06:38:34;;;;;;;5.78;1.67;;;5.70;73.60;;;;;;2320214;54;21107;-74
2022/01/06 06:41:00;;;;;;;4.60;1.90;;;5.70;73.60;;;;;;2347686;53;20956;-74
2022/01/06 06:43:27;;;;;;;4.57;1.60;;;5.80;73.70;;;;;;2350023;53;20916;-73
2022/01/06 06:45:54;;;;;;;4.70;1.95;;;5.80;73.60;;;;;;2341189;53;20956;-74
2022/01/06 06:48:24;;;;;;;4.30;1.75;;;5.80;73.60;;;;;;2346506;53;20971;-73
2022/01/06 06:50:50;;;;;;;5.82;1.60;;;5.80;73.80;;;;;;2361141;54;20903;-74
2022/01/06 06:53:17;;;;;;;3.42;1.50;;;5.80;73.70;;;;;;2362789;53;20978;-73
2022/01/06 06:55:44;;;;;;;5.03;1.37;;;5.90;73.90;;;;;;2430018;53;20942;-74
2022/01/06 06:58:10;;;;;;;3.75;1.90;;;5.90;73.90;;;;;;2343888;53;20963;-74
2022/01/06 07:00:37;;;;;;;4.20;1.50;;;5.90;73.90;;;;;;2360189;53;21424;-74
2022/01/06 07:03:03;;;;;;;4.93;1.67;;;5.90;73.80;;;;;;2348006;53;21399;-74
2022/01/06 07:05:30;;;;;;;3.95;1.42;;;6.00;73.80;;;;;;2588720;52;21003;-74
2022/01/06 07:07:56;;;;;;;3.30;1.42;;;6.00;73.80;;;;;;2351182;53;20976;-74
2022/01/06 07:10:22;;;;;;;4.25;1.40;;;6.00;73.80;;;;;;2490122;52;21015;-74
2022/01/06 07:12:49;;;;;;;3.67;1.37;;;6.00;73.80;;;;;;2469636;52;21008;-73
2022/01/06 07:15:17;;;;;;;3.83;1.20;;;6.00;73.80;;;;;;2375439;53;20929;-74
2022/01/06 07:17:43;;;;;;;4.20;1.50;;;6.10;73.90;;;;;;2615183;52;21007;-74
2022/01/06 07:20:10;;;;;;;3.50;1.45;;;6.10;73.80;;;;;;2350724;53;21354;-73
2022/01/06 07:22:39;;;;;;;5.07;1.42;;;6.10;73.80;;;;;;2347472;53;20975;-74
2022/01/06 07:25:06;;;;;;;3.53;1.52;;;6.10;73.70;;;;;;2353629;53;21020;-73
2022/01/06 07:27:37;;;;;;;4.47;1.60;;;6.10;73.70;;;;;;2349300;53;21723;-73
2022/01/06 07:30:04;;;;;;;4.97;1.62;;;6.10;73.70;;;;;;2355289;54;20968;-74
2022/01/06 07:32:30;;;;;;;4.65;1.67;;;6.20;73.70;;;;;;2347890;53;21728;-74
2022/01/06 07:34:57;;;;;;;4.00;1.90;;;6.20;73.70;;;;;;2361711;53;21538;-74
2022/01/06 07:37:23;;;;;;;3.65;1.67;;;6.20;73.70;;;;;;2338872;53;21455;-74
2022/01/06 07:39:50;;;;;;;3.37;1.52;;;6.20;73.60;;;;;;2354679;53;21743;-74
2022/01/06 07:42:16;;;;;;;2.87;1.58;;;6.20;73.60;;;;;;2389020;52;21102;-74
2022/01/06 07:44:46;;;;;;;2.87;1.40;;;6.20;73.60;;;;;;2409288;52;21026;-74
2022/01/06 07:47:13;;;;;;;5.05;1.87;;;6.20;73.60;;;;;;2342018;53;20956;-73
2022/01/06 07:49:39;;;;;;;4.25;1.73;;;6.20;73.50;;;;;;2343063;53;21278;-74
2022/01/06 07:52:06;;;;;;;4.75;1.58;;;6.30;73.60;;;;;;2337561;53;21968;-74
2022/01/06 07:54:32;;;;;;;3.87;1.67;;;6.30;73.50;;;;;;2347207;53;21570;-73
2022/01/06 07:56:59;;;;;;;4.82;1.90;;;6.30;73.60;;;;;;2483471;53;21509;-74
2022/01/06 07:59:25;;;;;;;3.28;1.55;;;6.30;73.60;;;;;;2343356;53;20928;-74
2022/01/06 08:01:51;;;;;;;4.72;1.70;;;6.30;73.60;;;;;;2337589;53;21557;-73
2022/01/06 08:04:17;;;;;;;2.90;1.48;;;6.40;74.40;;;;;;2356934;53;20993;-74
2022/01/06 08:06:44;;;;;;;3.15;1.67;;;6.40;73.70;;;;;;2355872;54;20994;-74
2022/01/06 08:09:10;;;;;;;3.60;1.33;;;6.40;73.60;;;;;;2338404;53;20984;-75
2022/01/06 08:11:36;;;;;;;4.90;1.85;;;6.40;73.40;;;;;;2352454;54;21515;-74
2022/01/06 08:14:03;;;;;;;4.18;2.78;;;6.40;73.50;;;;;;2336680;53;20945;-74
2022/01/06 08:16:29;;;;;;;5.53;3.05;;;6.40;73.50;;;;;;2363456;52;20978;-74
2022/01/06 08:18:56;;;;;;;5.80;3.20;;;6.40;73.30;;;;;;2394054;52;21009;-74
2022/01/06 08:21:22;;;;;;;3.60;2.45;;;6.40;73.30;;;;;;2371973;52;20988;-74
2022/01/06 08:23:49;;;;;;;3.90;2.33;;;6.40;73.10;;;;;;2382107;52;20973;-74
2022/01/06 08:26:15;;;;;;;4.60;2.70;;;6.40;73.10;;;;;;2357412;54;21972;-74
2022/01/06 08:28:48;;;;;;;5.43;2.30;;;6.40;73.00;;;;;;2357283;52;21459;-74
2022/01/06 08:31:15;;;;;;;6.32;2.50;;;6.40;72.90;;;;;;2438721;52;21005;-73
2022/01/06 08:33:41;;;;;;;4.03;1.90;;;6.40;72.90;;;;;;2523172;52;20964;-73
2022/01/06 08:36:07;;;;;;;3.62;1.60;;;6.30;72.70;;;;;;2367906;52;20981;-74
2022/01/06 08:38:34;;;;;;;3.65;1.80;;;6.40;72.90;;;;;;2380829;53;20982;-73
2022/01/06 08:41:01;;;;;;;5.00;1.92;;;6.40;72.80;;;;;;2338129;53;22038;-73
2022/01/06 08:43:27;;;;;;;3.75;1.73;;;6.40;72.80;;;;;;2343994;53;20953;-73
2022/01/06 08:45:55;;;;;;;4.55;1.73;;;6.30;72.90;;;;;;2468674;52;21156;-73
2022/01/06 08:48:22;;;;;;;3.50;1.77;;;6.30;73.00;;;;;;2357945;53;21492;-74
2022/01/06 08:50:48;;;;;;;3.53;1.67;;;6.30;73.00;;;;;;2359323;53;20978;-74
2022/01/06 08:53:15;;;;;;;3.78;1.80;;;6.30;73.90;;;;;;2368170;52;20953;-74
2022/01/06 08:55:46;;;;;;;4.87;2.28;;;6.30;73.40;;;;;;2360135;54;20945;-74
2022/01/06 08:58:18;;;;;;;4.22;2.05;;;6.30;73.60;;;;;;2350537;53;20976;-74
2022/01/06 09:00:44;;;;;;;;;;;6.40;73.60;;;;;;2444394;53;21736;-74
2022/01/06 09:03:10;;;;;;;4.95;2.72;;;6.40;72.90;;;;;;2361310;54;20074;-74
2022/01/06 09:05:38;;;;;;;5.45;2.33;;;6.40;73.50;;;;;;2460593;52;20968;-74
2022/01/06 09:08:05;;;;;;;5.35;2.05;;;6.40;73.60;;;;;;2351933;53;20959;-74
2022/01/06 09:10:33;;;;;;;5.57;2.80;;;6.50;73.90;;;;;;2345697;53;21521;-74
2022/01/06 09:13:11;;;;;;;4.55;2.42;;;6.50;74.00;;;;;;2360491;54;20966;-74
2022/01/06 09:15:37;;;;;;;4.07;2.08;;;6.50;74.10;;;;;;2417922;52;21491;-74
2022/01/06 09:18:03;;;;;;;5.05;2.00;;;6.50;74.10;;;;;;2357643;53;21457;-74
2022/01/06 09:20:33;;;;;;;5.37;2.72;;;6.60;74.20;;;;;;2358444;54;20950;-74
2022/01/06 09:23:00;;;;;;;5.78;2.35;;;6.60;74.70;;;;;;2356313;53;21001;-74
2022/01/06 09:25:27;;;;;;;6.47;2.28;;;6.60;74.20;;;;;;2355780;54;21518;-74
2022/01/06 09:27:54;;;;;;;4.12;2.22;;;6.70;74.20;;;;;;2352729;53;21890;-74
2022/01/06 09:30:25;;;;;;;8.38;3.92;;;6.70;74.10;;;;;;2339484;53;21531;-74
2022/01/06 09:32:53;;;;;;;7.60;3.53;;;6.70;74.00;;;;;;2350955;53;22013;-74
2022/01/06 09:35:20;;;;;;;5.32;2.83;;;6.70;73.80;;;;;;2331890;53;20942;-74
2022/01/06 09:37:46;;;;;;;8.13;3.70;;;6.80;74.00;;;;;;2343425;53;20960;-74
2022/01/06 09:40:13;;;;;;;8.05;4.22;;;6.80;73.90;;;;;;2342119;53;21312;-74
2022/01/06 09:42:41;;;;;;;9.23;4.00;;;6.80;73.80;;;;;;2419129;52;20992;-74
2022/01/06 09:45:08;;;;;;;6.28;2.92;;;6.80;73.80;;;;;;2343282;53;21751;-74
2022/01/06 09:47:34;;;;;;;5.53;2.50;;;6.80;73.80;;;;;;2356628;53;21101;-74
2022/01/06 09:50:06;;;;;;;5.68;2.28;;;6.80;73.90;;;;;;2358426;53;21152;-74
2022/01/06 09:52:34;;;;;;;6.28;2.20;;;6.80;73.90;;;;;;2358044;54;21600;-74
2022/01/06 09:55:03;;;;;;;5.60;2.00;;;6.90;74.00;;;;;;2343980;52;21623;-74
2022/01/06 09:57:30;;;;;;;4.05;2.00;;;6.90;74.10;;;;;;2355428;53;21005;-74
2022/01/06 09:59:56;;;;;;;5.78;1.92;;;6.90;74.20;;;;;;2356338;54;21465;-74
2022/01/06 10:02:40;;;;;;;4.60;1.60;;;7.00;74.30;;;;;;2347657;53;21490;-74
2022/01/06 10:05:07;;;;;;;5.20;1.70;;;7.00;74.20;;;;;;2340142;53;21304;-74
2022/01/06 10:07:37;;;;;;;4.93;1.62;;;7.00;74.30;;;;;;2344584;53;20930;-74
2022/01/06 10:10:13;;;;;;;4.55;1.77;;;7.10;74.40;;;;;;2345673;53;21399;-74
2022/01/06 10:12:40;;;;;;;5.35;1.95;;;7.10;74.20;;;;;;2356534;52;21238;-74
2022/01/06 10:15:23;;;;;;;5.28;1.90;;;7.10;74.20;;;;;;2343040;53;21228;-74
2022/01/06 10:17:49;;;;;;;5.78;1.48;;;7.20;74.00;;;;;;2532364;52;20961;-74
2022/01/06 10:20:17;;;;;;;3.70;2.10;;;7.20;74.10;;;;;;2336625;53;21527;-74
2022/01/06 10:22:51;;;;;;;5.87;2.42;;;7.20;74.00;;;;;;2340953;53;21463;-74
2022/01/06 10:25:19;;;;;;;5.10;1.92;;;7.20;73.90;;;;;;2410944;53;21011;-74
2022/01/06 10:27:46;;;;;;;4.43;2.03;;;7.20;74.10;;;;;;2328557;53;21831;-74
2022/01/06 10:30:13;;;;;;;4.07;2.15;;;7.30;74.30;;;;;;2327171;53;21058;-74
2022/01/06 10:32:40;;;;;;;3.83;2.00;;;7.30;74.50;;;;;;2336635;53;21413;-74
2022/01/06 10:35:06;;;;;;;4.53;2.10;;;7.30;74.50;;;;;;2357757;52;21609;-74
2022/01/06 10:37:40;;;;;;;3.70;1.80;;;7.40;74.60;;;;;;2393399;52;21529;-74
2022/01/06 10:40:12;;;;;;;4.72;1.95;;;7.40;74.60;;;;;;2320331;54;21578;-74
2022/01/06 10:42:39;;;;;;;4.00;1.80;;;7.50;74.60;;;;;;2355101;53;21703;-74
2022/01/06 10:45:13;;;;;;;3.65;1.50;;;7.50;74.50;;;;;;2343124;53;21590;-74
2022/01/06 10:47:46;;;;;;;3.57;1.67;;;7.50;74.30;;;;;;2412122;52;20981;-74
2022/01/06 10:50:28;;;;;;;4.45;1.90;;;7.50;74.10;;;;;;2333460;53;21440;-74
2022/01/06 10:53:05;;;;;;;5.70;2.20;;;7.60;74.10;;;;;;2314122;54;20952;-74
2022/01/06 10:55:39;;;;;;;4.65;1.90;;;7.60;74.20;;;;;;2435031;52;21866;-74
2022/01/06 10:58:28;;;;;;;3.72;1.62;;;7.60;73.90;;;;;;2409627;53;20915;-74
2022/01/06 11:01:00;;;;;;;3.90;1.87;;;7.70;73.80;;;;;;2336967;54;21125;-74
2022/01/06 11:03:28;;;;;;;4.07;2.08;;;7.70;74.10;;;;;;2358627;53;20960;-74
2022/01/06 11:05:56;;;;;;;4.60;1.90;;;7.70;74.20;;;;;;2323234;54;21108;-74
2022/01/06 11:08:30;;;;;;;6.00;2.37;;;7.70;74.30;;;;;;2355320;53;21532;-74
2022/01/06 11:13:46;;;;;;;3.53;1.48;;;7.90;75.00;;;;;;2361366;52;21023;-74
2022/01/06 11:16:14;;;;;;;4.10;1.95;;;7.90;75.20;;;;;;2335503;53;21473;-74
2022/01/06 11:18:53;;;;;;;6.35;1.83;;;8.00;75.40;;;;;;2370012;52;21333;-74
2022/01/06 11:22:05;;;;;;;4.82;1.95;;;8.00;76.30;;;;;;2361706;52;21798;-74
2022/01/06 11:24:35;;;;;;;5.50;1.90;;;8.10;75.90;;;;;;2339253;53;21003;-74
2022/01/06 11:27:06;;;;;;;3.83;1.95;;;8.30;76.10;;;;;;2436019;53;21625;-74
2022/01/06 11:29:37;;;;;;;4.28;1.98;;;8.40;75.90;;;;;;2355289;53;21039;-75
2022/01/06 11:32:05;;;;;;;4.43;1.87;;;8.50;75.70;;;;;;2520419;52;21334;-74
2022/01/06 11:34:38;;;;;;;4.60;1.80;;;8.50;75.60;;;;;;2355484;54;21488;-74
2022/01/06 11:37:10;;;;;;;;;;;8.60;75.20;;;;;;2358267;54;20943;-74
2022/01/06 11:39:37;;;;;;;4.95;2.05;;;8.60;74.00;;;;;;2355319;54;20062;-74
2022/01/06 11:42:15;;;;;;;6.25;2.20;;;8.70;74.60;;;;;;2340675;53;21578;-74
2022/01/06 11:44:52;;;;;;;3.58;1.83;;;8.70;74.30;;;;;;2352377;53;21078;-74
2022/01/06 11:47:37;;;;;;;5.78;2.50;;;8.70;74.30;;;;;;2337317;53;20936;-74
2022/01/06 11:50:24;;;;;;;6.62;2.45;;;8.80;74.20;;;;;;2334616;54;20987;-74
2022/01/06 11:52:58;;;;;;;4.93;2.35;;;8.80;73.80;;;;;;2330158;53;21842;-74
2022/01/06 11:55:29;;;;;;;5.07;2.55;;;8.90;74.00;;;;;;2321762;54;20975;-74
2022/01/06 11:57:55;;;;;;;4.50;2.28;;;8.90;74.00;;;;;;2424917;53;21585;-74
2022/01/06 12:00:23;;;;;;;6.20;2.35;;;8.90;74.30;;;;;;2332299;54;21084;-74
2022/01/06 12:03:03;;;;;;;4.35;2.00;;;8.90;74.30;;;;;;2339518;53;21316;-74
2022/01/06 12:05:49;;;;;;;8.02;2.90;;;9.00;73.70;;;;;;2331543;54;20931;-75
2022/01/06 12:08:16;;;;;;;4.43;1.92;;;9.00;73.10;;;;;;2336396;54;21538;-74
2022/01/06 12:10:47;;;;;;;4.70;2.00;;;9.00;73.20;;;;;;2440671;53;21402;-74
2022/01/06 12:13:13;;;;;;;4.90;2.15;;;9.00;72.90;;;;;;2332453;54;21809;-74
2022/01/06 12:15:57;;;;;;;4.43;2.10;;;9.00;72.90;;;;;;2332763;54;21457;-74
2022/01/06 12:18:27;;;;;;;4.18;1.98;;;9.00;72.60;;;;;;2335494;53;21056;-74
2022/01/06 12:20:54;;;;;;;6.15;2.45;;;9.00;72.90;;;;;;2363796;53;21897;-74
2022/01/06 12:23:22;;;;;;;5.50;2.40;;;9.00;73.20;;;;;;2333876;53;20986;-74
2022/01/06 12:26:03;;;;;;;5.37;2.70;;;9.00;73.20;;;;;;2318551;54;20992;-74
2022/01/06 12:28:31;;;;;;;5.32;2.60;;;9.00;73.20;;;;;;2333641;53;20930;-74
2022/01/06 12:30:58;;;;;;;7.78;3.20;;;9.10;74.60;;;;;;2511917;53;22011;-74
2022/01/06 12:33:25;;;;;;;5.90;3.08;;;9.20;75.70;;;;;;2330062;53;21036;-74
2022/01/06 12:35:53;;;;;;;5.43;2.97;;;9.30;76.40;;;;;;2377671;53;20947;-74
2022/01/06 12:38:32;;;;;;;10.35;3.17;;;9.50;77.70;;;;;;2312874;55;21815;-74
2022/01/06 12:40:59;;;;;;;7.05;3.40;;;9.70;78.60;;;;;;2340834;53;21850;-74
2022/01/06 12:43:35;;;;;;;6.18;2.95;;;10.00;77.70;;;;;;2358030;53;20936;-74
2022/01/06 12:46:06;;;;;;;6.25;2.92;;;10.20;76.70;;;;;;2573803;52;20917;-74
2022/01/06 12:48:38;;;;;;;8.73;3.58;;;10.40;76.10;;;;;;2332786;53;20933;-74
2022/01/06 12:51:04;;;;;;;7.95;2.95;;;10.60;76.30;;;;;;2376924;53;21014;-75
2022/01/06 12:53:41;;;;;;;10.50;2.90;;;10.80;76.40;;;;;;2348397;53;21486;-74
2022/01/06 12:56:07;;;;;;;6.28;3.00;;;11.00;75.20;;;;;;2341169;54;20924;-75
2022/01/06 12:58:35;;;;;;;7.43;2.70;;;11.20;75.50;;;;;;2350831;53;21452;-75
2022/01/06 13:01:06;;;;;;;7.32;2.78;;;11.40;74.00;;;;;;2339297;53;21010;-74
2022/01/06 13:03:35;;;;;;;5.43;2.28;;;11.50;72.50;;;;;;2353911;53;21538;-74
2022/01/06 13:06:04;;;;;;;4.93;2.08;;;11.50;70.90;;;;;;2365252;52;21963;-74
2022/01/06 13:08:31;;;;;;;5.15;2.05;;;11.40;69.90;;;;;;2345548;53;20932;-74
2022/01/06 13:11:02;;;;;;;9.88;2.25;;;11.40;69.20;;;;;;2424801;53;21451;-74
2022/01/06 13:13:28;;;;;;;5.25;2.75;;;11.30;68.40;;;;;;2332632;54;20954;-75